sensor_id;sensor_type;location;lat;lon;timestamp;temperature;humidity
3758;DHT22;1894;51.038;13.692;2022-12-07T00:01:42;3.40;99.90
3758;DHT22;1894;51.038;13.692;2022-12-07T00:04:13;3.40;99.90
3758;DHT22;1894;51.038;13.692;2022-12-07T00:06:43;3.50;99.90
3758;DHT22;1894;51.038;13.692;2022-12-07T00:09:16;3.50;99.90
3758;DHT22;1894;51.038;13.692;2022-12-07T00:11:44;3.50;99.90
3758;DHT22;1894;51.038;13.692;2022-12-07T00:14:16;3.40;99.90
3758;DHT22;1894;51.038;13.692;2022-12-07T00:16:44;3.50;99.90
3758;DHT22;1894;51.038;13.692;2022-12-07T00:19:13;3.70;99.90
3758;DHT22;1894;51.038;13.692;2022-12-07T00:21:41;3.60;99.90
3758;DHT22;1894;51.038;13.692;2022-12-07T00:24:10;3.50;99.90
3758;DHT22;1894;51.038;13.692;2022-12-07T00:26:39;3.50;99.90
3758;DHT22;1894;51.038;13.692;2022-12-07T00:29:16;3.60;99.90
3758;DHT22;1894;51.038;13.692;2022-12-07T00:31:45;3.60;99.90
3758;DHT22;1894;51.038;13.692;2022-12-07T00:34:16;3.60;99.90
3758;DHT22;1894;51.038;13.692;2022-12-07T00:36:45;3.60;99.90
3758;DHT22;1894;51.038;13.692;2022-12-07T00:39:12;3.60;99.90
3758;DHT22;1894;51.038;13.692;2022-12-07T00:41:39;3.60;99.90
3758;DHT22;1894;51.038;13.692;2022-12-07T00:44:06;3.60;99.90
3758;DHT22;1894;51.038;13.692;2022-12-07T00:46:33;3.50;99.90
3758;DHT22;1894;51.038;13.692;2022-12-07T00:49:01;3.60;99.90
3758;DHT22;1894;51.038;13.692;2022-12-07T00:51:28;3.60;99.90
3758;DHT22;1894;51.038;13.692;2022-12-07T00:53:55;3.60;99.90
3758;DHT22;1894;51.038;13.692;2022-12-07T00:56:26;3.60;99.90
3758;DHT22;1894;51.038;13.692;2022-12-07T00:59:02;3.50;99.90
3758;DHT22;1894;51.038;13.692;2022-12-07T01:01:35;3.60;99.90
3758;DHT22;1894;51.038;13.692;2022-12-07T01:04:04;3.60;99.90
3758;DHT22;1894;51.038;13.692;2022-12-07T01:06:31;3.70;99.90
3758;DHT22;1894;51.038;13.692;2022-12-07T01:08:59;3.70;99.90
3758;DHT22;1894;51.038;13.692;2022-12-07T01:11:29;3.60;99.90
3758;DHT22;1894;51.038;13.692;2022-12-07T01:13:58;3.50;99.90
3758;DHT22;1894;51.038;13.692;2022-12-07T01:16:27;3.50;99.90
3758;DHT22;1894;51.038;13.692;2022-12-07T01:18:57;3.60;99.90
3758;DHT22;1894;51.038;13.692;2022-12-07T01:21:30;3.60;99.90
3758;DHT22;1894;51.038;13.692;2022-12-07T01:24:06;3.60;99.90
3758;DHT22;1894;51.038;13.692;2022-12-07T01:26:35;3.50;99.90
3758;DHT22;1894;51.038;13.692;2022-12-07T01:29:03;3.50;99.90
3758;DHT22;1894;51.038;13.692;2022-12-07T01:31:30;3.60;99.90
3758;DHT22;1894;51.038;13.692;2022-12-07T01:33:59;3.50;99.90
3758;DHT22;1894;51.038;13.692;2022-12-07T01:38:59;3.50;99.90
3758;DHT22;1894;51.038;13.692;2022-12-07T01:41:30;3.40;99.90
3758;DHT22;1894;51.038;13.692;2022-12-07T01:44:23;3.10;99.90
3758;DHT22;1894;51.038;13.692;2022-12-07T01:47:04;3.00;99.90
3758;DHT22;1894;51.038;13.692;2022-12-07T01:49:44;3.10;99.90
3758;DHT22;1894;51.038;13.692;2022-12-07T01:52:28;3.00;99.90
3758;DHT22;1894;51.038;13.692;2022-12-07T01:55:04;2.90;99.90
3758;DHT22;1894;51.038;13.692;2022-12-07T01:57:39;3.00;99.90
3758;DHT22;1894;51.038;13.692;2022-12-07T02:00:10;3.00;99.90
3758;DHT22;1894;51.038;13.692;2022-12-07T02:03:08;3.00;99.90
3758;DHT22;1894;51.038;13.692;2022-12-07T02:05:41;3.00;99.90
3758;DHT22;1894;51.038;13.692;2022-12-07T02:08:09;2.90;99.90
3758;DHT22;1894;51.038;13.692;2022-12-07T02:10:37;2.80;99.90
3758;DHT22;1894;51.038;13.692;2022-12-07T02:13:13;2.70;99.90
3758;DHT22;1894;51.038;13.692;2022-12-07T02:16:17;2.70;99.90
3758;DHT22;1894;51.038;13.692;2022-12-07T02:22:01;2.60;99.90
3758;DHT22;1894;51.038;13.692;2022-12-07T02:30:08;2.40;99.90
3758;DHT22;1894;51.038;13.692;2022-12-07T02:38:18;2.40;99.90
3758;DHT22;1894;51.038;13.692;2022-12-07T02:41:01;2.40;99.90
3758;DHT22;1894;51.038;13.692;2022-12-07T02:43:53;2.40;99.90
3758;DHT22;1894;51.038;13.692;2022-12-07T02:46:25;2.50;99.90
3758;DHT22;1894;51.038;13.692;2022-12-07T02:48:56;2.50;99.90
3758;DHT22;1894;51.038;13.692;2022-12-07T02:51:30;2.40;99.90
3758;DHT22;1894;51.038;13.692;2022-12-07T02:53:59;2.40;99.90
3758;DHT22;1894;51.038;13.692;2022-12-07T02:59:52;2.40;99.90
3758;DHT22;1894;51.038;13.692;2022-12-07T03:02:52;2.40;99.90
3758;DHT22;1894;51.038;13.692;2022-12-07T03:08:38;2.40;99.90
3758;DHT22;1894;51.038;13.692;2022-12-07T03:11:45;2.50;99.90
3758;DHT22;1894;51.038;13.692;2022-12-07T03:14:30;2.50;99.90
3758;DHT22;1894;51.038;13.692;2022-12-07T03:19:38;2.60;99.90
3758;DHT22;1894;51.038;13.692;2022-12-07T03:22:12;2.50;99.90
3758;DHT22;1894;51.038;13.692;2022-12-07T03:25:00;2.40;99.90
3758;DHT22;1894;51.038;13.692;2022-12-07T03:27:34;2.30;99.90
3758;DHT22;1894;51.038;13.692;2022-12-07T03:30:17;2.30;99.90
3758;DHT22;1894;51.038;13.692;2022-12-07T03:32:54;2.30;99.90
3758;DHT22;1894;51.038;13.692;2022-12-07T03:38:40;2.20;99.90
3758;DHT22;1894;51.038;13.692;2022-12-07T03:41:16;2.10;99.90
3758;DHT22;1894;51.038;13.692;2022-12-07T03:43:46;2.10;99.90
3758;DHT22;1894;51.038;13.692;2022-12-07T03:49:27;2.10;99.90
3758;DHT22;1894;51.038;13.692;2022-12-07T03:54:52;2.00;99.90
3758;DHT22;1894;51.038;13.692;2022-12-07T03:57:24;2.00;99.90
3758;DHT22;1894;51.038;13.692;2022-12-07T03:59:54;2.00;99.90
3758;DHT22;1894;51.038;13.692;2022-12-07T04:02:23;2.00;99.90
3758;DHT22;1894;51.038;13.692;2022-12-07T04:04:52;2.10;99.90
3758;DHT22;1894;51.038;13.692;2022-12-07T04:07:19;2.10;99.90
3758;DHT22;1894;51.038;13.692;2022-12-07T04:09:46;2.00;99.90
3758;DHT22;1894;51.038;13.692;2022-12-07T04:12:13;2.00;99.90
3758;DHT22;1894;51.038;13.692;2022-12-07T04:14:40;1.90;99.90
3758;DHT22;1894;51.038;13.692;2022-12-07T04:17:08;2.00;99.90
3758;DHT22;1894;51.038;13.692;2022-12-07T04:19:35;2.00;99.90
3758;DHT22;1894;51.038;13.692;2022-12-07T04:22:06;2.00;99.90
3758;DHT22;1894;51.038;13.692;2022-12-07T04:24:34;2.00;99.90
3758;DHT22;1894;51.038;13.692;2022-12-07T04:27:01;1.90;99.90
3758;DHT22;1894;51.038;13.692;2022-12-07T04:29:28;1.90;99.90
3758;DHT22;1894;51.038;13.692;2022-12-07T04:31:55;1.90;99.90
3758;DHT22;1894;51.038;13.692;2022-12-07T04:34:23;1.90;99.90
3758;DHT22;1894;51.038;13.692;2022-12-07T04:36:50;1.80;99.90
3758;DHT22;1894;51.038;13.692;2022-12-07T04:39:24;1.80;99.90
3758;DHT22;1894;51.038;13.692;2022-12-07T04:41:52;1.80;99.90
3758;DHT22;1894;51.038;13.692;2022-12-07T04:44:20;1.90;99.90
3758;DHT22;1894;51.038;13.692;2022-12-07T04:46:48;1.80;99.90
3758;DHT22;1894;51.038;13.692;2022-12-07T04:49:16;1.80;99.90
3758;DHT22;1894;51.038;13.692;2022-12-07T04:51:45;1.80;99.90
3758;DHT22;1894;51.038;13.692;2022-12-07T04:54:13;1.80;99.90
3758;DHT22;1894;51.038;13.692;2022-12-07T04:56:41;1.80;99.90
3758;DHT22;1894;51.038;13.692;2022-12-07T04:59:10;1.80;99.90
3758;DHT22;1894;51.038;13.692;2022-12-07T05:01:38;1.80;99.90
3758;DHT22;1894;51.038;13.692;2022-12-07T05:04:06;1.80;99.90
3758;DHT22;1894;51.038;13.692;2022-12-07T05:06:34;1.90;99.90
3758;DHT22;1894;51.038;13.692;2022-12-07T05:09:02;1.90;99.90
3758;DHT22;1894;51.038;13.692;2022-12-07T05:11:30;1.90;99.90
3758;DHT22;1894;51.038;13.692;2022-12-07T05:14:18;1.90;99.90
3758;DHT22;1894;51.038;13.692;2022-12-07T05:16:49;1.90;99.90
3758;DHT22;1894;51.038;13.692;2022-12-07T05:19:18;1.80;99.90
3758;DHT22;1894;51.038;13.692;2022-12-07T05:21:45;1.80;99.90
3758;DHT22;1894;51.038;13.692;2022-12-07T05:24:14;1.80;99.90
3758;DHT22;1894;51.038;13.692;2022-12-07T05:26:43;1.90;99.90
3758;DHT22;1894;51.038;13.692;2022-12-07T05:29:15;1.90;99.90
3758;DHT22;1894;51.038;13.692;2022-12-07T05:31:44;2.00;99.90
3758;DHT22;1894;51.038;13.692;2022-12-07T05:34:12;2.00;99.90
3758;DHT22;1894;51.038;13.692;2022-12-07T05:36:39;2.10;99.90
3758;DHT22;1894;51.038;13.692;2022-12-07T05:39:07;2.10;99.90
3758;DHT22;1894;51.038;13.692;2022-12-07T05:41:34;2.10;99.90
3758;DHT22;1894;51.038;13.692;2022-12-07T05:44:19;2.00;99.90
3758;DHT22;1894;51.038;13.692;2022-12-07T05:46:47;2.10;99.90
3758;DHT22;1894;51.038;13.692;2022-12-07T05:49:14;2.10;99.90
3758;DHT22;1894;51.038;13.692;2022-12-07T05:51:41;2.10;99.90
3758;DHT22;1894;51.038;13.692;2022-12-07T05:54:08;2.10;99.90
3758;DHT22;1894;51.038;13.692;2022-12-07T05:56:36;2.20;99.90
3758;DHT22;1894;51.038;13.692;2022-12-07T05:59:03;2.20;99.90
3758;DHT22;1894;51.038;13.692;2022-12-07T06:02:00;2.30;99.90
3758;DHT22;1894;51.038;13.692;2022-12-07T06:04:31;2.40;99.90
3758;DHT22;1894;51.038;13.692;2022-12-07T06:07:00;2.50;99.90
3758;DHT22;1894;51.038;13.692;2022-12-07T06:09:28;2.60;99.90
3758;DHT22;1894;51.038;13.692;2022-12-07T06:11:56;2.70;99.90
3758;DHT22;1894;51.038;13.692;2022-12-07T06:14:44;2.80;99.90
3758;DHT22;1894;51.038;13.692;2022-12-07T06:17:12;2.90;99.90
3758;DHT22;1894;51.038;13.692;2022-12-07T06:19:40;2.80;99.90
3758;DHT22;1894;51.038;13.692;2022-12-07T06:22:09;2.80;99.90
3758;DHT22;1894;51.038;13.692;2022-12-07T06:24:39;2.80;99.90
3758;DHT22;1894;51.038;13.692;2022-12-07T06:27:06;2.80;99.90
3758;DHT22;1894;51.038;13.692;2022-12-07T06:29:34;2.70;99.90
3758;DHT22;1894;51.038;13.692;2022-12-07T06:32:01;2.70;99.90
3758;DHT22;1894;51.038;13.692;2022-12-07T06:34:29;2.80;99.90
3758;DHT22;1894;51.038;13.692;2022-12-07T06:36:56;2.70;99.90
3758;DHT22;1894;51.038;13.692;2022-12-07T06:39:28;2.80;99.90
3758;DHT22;1894;51.038;13.692;2022-12-07T06:41:56;2.80;99.90
3758;DHT22;1894;51.038;13.692;2022-12-07T06:44:24;2.70;99.90
3758;DHT22;1894;51.038;13.692;2022-12-07T06:46:52;2.70;99.90
3758;DHT22;1894;51.038;13.692;2022-12-07T06:49:40;2.80;99.90
3758;DHT22;1894;51.038;13.692;2022-12-07T06:52:07;2.70;99.90
3758;DHT22;1894;51.038;13.692;2022-12-07T06:54:34;2.70;99.90
3758;DHT22;1894;51.038;13.692;2022-12-07T06:57:01;2.80;99.90
3758;DHT22;1894;51.038;13.692;2022-12-07T06:59:28;2.80;99.90
3758;DHT22;1894;51.038;13.692;2022-12-07T07:01:55;2.80;99.90
3758;DHT22;1894;51.038;13.692;2022-12-07T07:04:22;2.80;99.90
3758;DHT22;1894;51.038;13.692;2022-12-07T07:06:50;2.80;99.90
3758;DHT22;1894;51.038;13.692;2022-12-07T07:09:25;2.80;99.90
3758;DHT22;1894;51.038;13.692;2022-12-07T07:11:53;2.80;99.90
3758;DHT22;1894;51.038;13.692;2022-12-07T07:14:20;2.80;99.90
3758;DHT22;1894;51.038;13.692;2022-12-07T07:16:47;2.70;99.90
3758;DHT22;1894;51.038;13.692;2022-12-07T07:19:15;2.70;99.90
3758;DHT22;1894;51.038;13.692;2022-12-07T07:21:42;2.60;99.90
3758;DHT22;1894;51.038;13.692;2022-12-07T07:24:09;2.60;99.90
3758;DHT22;1894;51.038;13.692;2022-12-07T07:26:36;2.60;99.90
3758;DHT22;1894;51.038;13.692;2022-12-07T07:29:03;2.60;99.90
3758;DHT22;1894;51.038;13.692;2022-12-07T07:31:30;2.50;99.90
3758;DHT22;1894;51.038;13.692;2022-12-07T07:33:57;2.40;99.90
3758;DHT22;1894;51.038;13.692;2022-12-07T07:36:24;2.30;99.90
3758;DHT22;1894;51.038;13.692;2022-12-07T07:38:51;2.50;99.90
3758;DHT22;1894;51.038;13.692;2022-12-07T07:41:21;2.50;99.90
3758;DHT22;1894;51.038;13.692;2022-12-07T07:43:48;2.50;99.90
3758;DHT22;1894;51.038;13.692;2022-12-07T07:46:15;2.60;99.90
3758;DHT22;1894;51.038;13.692;2022-12-07T07:48:43;2.70;99.90
3758;DHT22;1894;51.038;13.692;2022-12-07T07:51:10;2.70;99.90
3758;DHT22;1894;51.038;13.692;2022-12-07T07:53:37;2.80;99.90
3758;DHT22;1894;51.038;13.692;2022-12-07T07:56:04;2.90;99.90
3758;DHT22;1894;51.038;13.692;2022-12-07T07:58:31;3.00;99.90
3758;DHT22;1894;51.038;13.692;2022-12-07T08:01:06;3.00;99.90
3758;DHT22;1894;51.038;13.692;2022-12-07T08:03:34;3.00;99.90
3758;DHT22;1894;51.038;13.692;2022-12-07T08:06:03;3.10;99.90
3758;DHT22;1894;51.038;13.692;2022-12-07T08:08:30;3.20;99.90
3758;DHT22;1894;51.038;13.692;2022-12-07T08:10:57;3.20;99.90
3758;DHT22;1894;51.038;13.692;2022-12-07T08:13:27;3.20;99.90
3758;DHT22;1894;51.038;13.692;2022-12-07T08:15:57;3.30;99.90
3758;DHT22;1894;51.038;13.692;2022-12-07T08:18:25;3.20;99.90
3758;DHT22;1894;51.038;13.692;2022-12-07T08:21:02;3.30;99.90
3758;DHT22;1894;51.038;13.692;2022-12-07T08:23:31;3.30;99.90
3758;DHT22;1894;51.038;13.692;2022-12-07T08:26:11;3.40;99.90
3758;DHT22;1894;51.038;13.692;2022-12-07T08:28:40;3.30;99.90
3758;DHT22;1894;51.038;13.692;2022-12-07T08:31:14;3.30;99.90
3758;DHT22;1894;51.038;13.692;2022-12-07T08:33:45;3.40;99.90
3758;DHT22;1894;51.038;13.692;2022-12-07T08:36:14;3.50;99.90
3758;DHT22;1894;51.038;13.692;2022-12-07T08:38:42;3.40;99.90
3758;DHT22;1894;51.038;13.692;2022-12-07T08:41:29;3.40;99.90
3758;DHT22;1894;51.038;13.692;2022-12-07T08:43:56;3.50;99.90
3758;DHT22;1894;51.038;13.692;2022-12-07T08:46:28;3.50;99.90
3758;DHT22;1894;51.038;13.692;2022-12-07T08:49:22;3.60;99.90
3758;DHT22;1894;51.038;13.692;2022-12-07T08:51:55;3.60;99.90
3758;DHT22;1894;51.038;13.692;2022-12-07T08:54:22;3.70;99.90
3758;DHT22;1894;51.038;13.692;2022-12-07T08:56:49;3.90;99.90
3758;DHT22;1894;51.038;13.692;2022-12-07T08:59:25;3.80;99.90
3758;DHT22;1894;51.038;13.692;2022-12-07T09:01:53;3.80;99.90
3758;DHT22;1894;51.038;13.692;2022-12-07T09:04:20;3.90;99.90
3758;DHT22;1894;51.038;13.692;2022-12-07T09:06:47;4.00;99.90
3758;DHT22;1894;51.038;13.692;2022-12-07T09:09:15;4.20;99.90
3758;DHT22;1894;51.038;13.692;2022-12-07T09:11:42;4.30;99.90
3758;DHT22;1894;51.038;13.692;2022-12-07T09:14:12;4.40;99.90
3758;DHT22;1894;51.038;13.692;2022-12-07T09:16:39;4.30;99.90
3758;DHT22;1894;51.038;13.692;2022-12-07T09:19:09;4.30;99.90
3758;DHT22;1894;51.038;13.692;2022-12-07T09:21:37;4.50;99.90
3758;DHT22;1894;51.038;13.692;2022-12-07T09:24:04;4.70;99.90
3758;DHT22;1894;51.038;13.692;2022-12-07T09:26:35;4.80;99.90
3758;DHT22;1894;51.038;13.692;2022-12-07T09:29:04;4.80;99.90
3758;DHT22;1894;51.038;13.692;2022-12-07T09:31:36;4.70;99.90
3758;DHT22;1894;51.038;13.692;2022-12-07T09:34:04;4.60;99.90
3758;DHT22;1894;51.038;13.692;2022-12-07T09:36:33;4.60;99.90
3758;DHT22;1894;51.038;13.692;2022-12-07T09:39:00;4.70;99.90
3758;DHT22;1894;51.038;13.692;2022-12-07T09:41:29;4.60;99.90
3758;DHT22;1894;51.038;13.692;2022-12-07T09:44:06;4.80;99.90
3758;DHT22;1894;51.038;13.692;2022-12-07T09:46:39;4.80;99.90
3758;DHT22;1894;51.038;13.692;2022-12-07T09:49:20;4.80;99.90
3758;DHT22;1894;51.038;13.692;2022-12-07T09:54:36;4.80;99.90
3758;DHT22;1894;51.038;13.692;2022-12-07T09:57:10;4.80;99.90
3758;DHT22;1894;51.038;13.692;2022-12-07T09:59:39;4.90;99.90
3758;DHT22;1894;51.038;13.692;2022-12-07T10:02:36;4.90;99.90
3758;DHT22;1894;51.038;13.692;2022-12-07T10:05:05;4.90;99.90
3758;DHT22;1894;51.038;13.692;2022-12-07T10:07:34;4.90;99.90
3758;DHT22;1894;51.038;13.692;2022-12-07T10:10:06;5.10;99.90
3758;DHT22;1894;51.038;13.692;2022-12-07T10:13:07;5.00;99.90
3758;DHT22;1894;51.038;13.692;2022-12-07T10:18:39;5.10;99.90
3758;DHT22;1894;51.038;13.692;2022-12-07T10:21:19;5.10;99.90
3758;DHT22;1894;51.038;13.692;2022-12-07T10:29:33;5.40;99.90
3758;DHT22;1894;51.038;13.692;2022-12-07T10:32:04;5.70;99.90
3758;DHT22;1894;51.038;13.692;2022-12-07T10:34:41;5.80;99.90
3758;DHT22;1894;51.038;13.692;2022-12-07T10:37:18;5.50;99.90
3758;DHT22;1894;51.038;13.692;2022-12-07T10:42:24;5.60;99.90
3758;DHT22;1894;51.038;13.692;2022-12-07T10:45:15;5.50;99.90
3758;DHT22;1894;51.038;13.692;2022-12-07T10:51:01;5.60;99.90
3758;DHT22;1894;51.038;13.692;2022-12-07T10:54:13;5.70;99.90
3758;DHT22;1894;51.038;13.692;2022-12-07T10:57:18;5.70;99.90
3758;DHT22;1894;51.038;13.692;2022-12-07T11:00:10;5.90;99.90
3758;DHT22;1894;51.038;13.692;2022-12-07T11:11:04;5.90;99.90
3758;DHT22;1894;51.038;13.692;2022-12-07T11:23:52;5.80;99.90
3758;DHT22;1894;51.038;13.692;2022-12-07T11:37:43;5.20;99.90
3758;DHT22;1894;51.038;13.692;2022-12-07T11:40:19;4.60;99.90
3758;DHT22;1894;51.038;13.692;2022-12-07T11:42:59;4.60;99.90
3758;DHT22;1894;51.038;13.692;2022-12-07T11:45:31;4.70;99.90
3758;DHT22;1894;51.038;13.692;2022-12-07T11:50:38;4.60;99.90
3758;DHT22;1894;51.038;13.692;2022-12-07T11:56:02;4.70;99.90
3758;DHT22;1894;51.038;13.692;2022-12-07T12:01:33;4.70;99.90
3758;DHT22;1894;51.038;13.692;2022-12-07T12:04:06;4.90;99.90
3758;DHT22;1894;51.038;13.692;2022-12-07T12:06:59;4.90;99.90
3758;DHT22;1894;51.038;13.692;2022-12-07T12:10:04;5.00;99.90
3758;DHT22;1894;51.038;13.692;2022-12-07T12:21:58;5.50;99.90
3758;DHT22;1894;51.038;13.692;2022-12-07T12:24:32;5.20;99.90
3758;DHT22;1894;51.038;13.692;2022-12-07T12:27:09;5.40;99.90
3758;DHT22;1894;51.038;13.692;2022-12-07T12:29:53;5.20;99.90
3758;DHT22;1894;51.038;13.692;2022-12-07T12:32:30;4.90;99.90
3758;DHT22;1894;51.038;13.692;2022-12-07T12:35:36;4.70;99.90
3758;DHT22;1894;51.038;13.692;2022-12-07T12:41:02;3.70;99.90
3758;DHT22;1894;51.038;13.692;2022-12-07T12:51:44;3.50;99.90
3758;DHT22;1894;51.038;13.692;2022-12-07T12:57:20;3.60;99.90
3758;DHT22;1894;51.038;13.692;2022-12-07T13:05:18;3.50;99.90
3758;DHT22;1894;51.038;13.692;2022-12-07T13:15:46;3.80;99.90
3758;DHT22;1894;51.038;13.692;2022-12-07T13:34:37;4.00;99.90
3758;DHT22;1894;51.038;13.692;2022-12-07T13:40:20;4.20;99.90
3758;DHT22;1894;51.038;13.692;2022-12-07T13:42:57;4.10;99.90
3758;DHT22;1894;51.038;13.692;2022-12-07T13:45:33;4.00;99.90
3758;DHT22;1894;51.038;13.692;2022-12-07T13:50:56;3.70;99.90
3758;DHT22;1894;51.038;13.692;2022-12-07T13:53:24;3.50;99.90
3758;DHT22;1894;51.038;13.692;2022-12-07T13:55:57;3.60;99.90
3758;DHT22;1894;51.038;13.692;2022-12-07T13:58:27;3.40;99.90
3758;DHT22;1894;51.038;13.692;2022-12-07T14:00:58;3.50;99.90
3758;DHT22;1894;51.038;13.692;2022-12-07T14:03:34;3.60;99.90
3758;DHT22;1894;51.038;13.692;2022-12-07T14:08:49;3.60;99.90
3758;DHT22;1894;51.038;13.692;2022-12-07T14:11:29;3.80;99.90
3758;DHT22;1894;51.038;13.692;2022-12-07T14:14:01;3.80;99.90
3758;DHT22;1894;51.038;13.692;2022-12-07T14:19:05;3.90;99.90
3758;DHT22;1894;51.038;13.692;2022-12-07T14:21:34;4.00;99.90
3758;DHT22;1894;51.038;13.692;2022-12-07T14:24:12;4.00;99.90
3758;DHT22;1894;51.038;13.692;2022-12-07T14:26:42;4.10;99.90
3758;DHT22;1894;51.038;13.692;2022-12-07T14:29:39;4.20;99.90
3758;DHT22;1894;51.038;13.692;2022-12-07T14:32:27;4.30;99.90
3758;DHT22;1894;51.038;13.692;2022-12-07T14:34:57;4.30;99.90
3758;DHT22;1894;51.038;13.692;2022-12-07T14:37:28;4.40;99.90
3758;DHT22;1894;51.038;13.692;2022-12-07T14:39:56;4.50;99.90
3758;DHT22;1894;51.038;13.692;2022-12-07T14:42:27;4.50;99.90
3758;DHT22;1894;51.038;13.692;2022-12-07T14:44:56;4.50;99.90
3758;DHT22;1894;51.038;13.692;2022-12-07T14:47:25;4.50;99.90
3758;DHT22;1894;51.038;13.692;2022-12-07T14:50:18;4.50;99.90
3758;DHT22;1894;51.038;13.692;2022-12-07T14:52:56;4.40;99.90
3758;DHT22;1894;51.038;13.692;2022-12-07T14:55:46;4.30;99.90
3758;DHT22;1894;51.038;13.692;2022-12-07T14:58:17;4.30;99.90
3758;DHT22;1894;51.038;13.692;2022-12-07T15:00:44;4.20;99.90
3758;DHT22;1894;51.038;13.692;2022-12-07T15:03:11;4.20;99.90
3758;DHT22;1894;51.038;13.692;2022-12-07T15:05:40;4.20;99.90
3758;DHT22;1894;51.038;13.692;2022-12-07T15:08:12;4.20;99.90
3758;DHT22;1894;51.038;13.692;2022-12-07T15:10:39;4.10;99.90
3758;DHT22;1894;51.038;13.692;2022-12-07T15:13:07;4.20;99.90
3758;DHT22;1894;51.038;13.692;2022-12-07T15:15:54;4.20;99.90
3758;DHT22;1894;51.038;13.692;2022-12-07T15:18:23;4.30;99.90
3758;DHT22;1894;51.038;13.692;2022-12-07T15:20:51;4.20;99.90
3758;DHT22;1894;51.038;13.692;2022-12-07T15:23:18;4.30;99.90
3758;DHT22;1894;51.038;13.692;2022-12-07T15:25:47;4.30;99.90
3758;DHT22;1894;51.038;13.692;2022-12-07T15:28:15;4.30;99.90
3758;DHT22;1894;51.038;13.692;2022-12-07T15:30:44;4.40;99.90
3758;DHT22;1894;51.038;13.692;2022-12-07T15:33:12;4.40;99.90
3758;DHT22;1894;51.038;13.692;2022-12-07T15:35:44;4.40;99.90
3758;DHT22;1894;51.038;13.692;2022-12-07T15:38:12;4.40;99.90
3758;DHT22;1894;51.038;13.692;2022-12-07T15:40:39;4.30;99.90
3758;DHT22;1894;51.038;13.692;2022-12-07T15:43:09;4.30;99.90
3758;DHT22;1894;51.038;13.692;2022-12-07T15:45:56;4.20;99.90
3758;DHT22;1894;51.038;13.692;2022-12-07T15:48:24;4.20;99.90
3758;DHT22;1894;51.038;13.692;2022-12-07T15:51:05;4.20;99.90
3758;DHT22;1894;51.038;13.692;2022-12-07T15:53:34;4.20;99.90
3758;DHT22;1894;51.038;13.692;2022-12-07T15:56:01;4.20;99.90
3758;DHT22;1894;51.038;13.692;2022-12-07T15:58:33;4.20;99.90
3758;DHT22;1894;51.038;13.692;2022-12-07T16:01:00;4.20;99.90
3758;DHT22;1894;51.038;13.692;2022-12-07T16:03:37;4.20;99.90
3758;DHT22;1894;51.038;13.692;2022-12-07T16:06:04;4.20;99.90
3758;DHT22;1894;51.038;13.692;2022-12-07T16:08:32;4.20;99.90
3758;DHT22;1894;51.038;13.692;2022-12-07T16:11:06;4.10;99.90
3758;DHT22;1894;51.038;13.692;2022-12-07T16:13:34;4.10;99.90
3758;DHT22;1894;51.038;13.692;2022-12-07T16:16:06;4.10;99.90
3758;DHT22;1894;51.038;13.692;2022-12-07T16:18:34;4.10;99.90
3758;DHT22;1894;51.038;13.692;2022-12-07T16:21:02;4.10;99.90
3758;DHT22;1894;51.038;13.692;2022-12-07T16:23:30;4.00;99.90
3758;DHT22;1894;51.038;13.692;2022-12-07T16:26:08;4.00;99.90
3758;DHT22;1894;51.038;13.692;2022-12-07T16:28:38;4.00;99.90
3758;DHT22;1894;51.038;13.692;2022-12-07T16:31:12;4.00;99.90
3758;DHT22;1894;51.038;13.692;2022-12-07T16:33:42;4.00;99.90
3758;DHT22;1894;51.038;13.692;2022-12-07T16:36:11;4.00;99.90
3758;DHT22;1894;51.038;13.692;2022-12-07T16:38:40;4.20;99.90
3758;DHT22;1894;51.038;13.692;2022-12-07T16:41:08;4.10;99.90
3758;DHT22;1894;51.038;13.692;2022-12-07T16:43:35;4.10;99.90
3758;DHT22;1894;51.038;13.692;2022-12-07T16:46:04;4.10;99.90
3758;DHT22;1894;51.038;13.692;2022-12-07T16:48:31;4.10;99.90
3758;DHT22;1894;51.038;13.692;2022-12-07T16:51:06;4.10;99.90
3758;DHT22;1894;51.038;13.692;2022-12-07T16:53:39;4.10;99.90
3758;DHT22;1894;51.038;13.692;2022-12-07T16:56:15;4.10;99.90
3758;DHT22;1894;51.038;13.692;2022-12-07T16:58:43;4.00;99.90
3758;DHT22;1894;51.038;13.692;2022-12-07T17:01:12;4.00;99.90
3758;DHT22;1894;51.038;13.692;2022-12-07T17:03:45;4.00;99.90
3758;DHT22;1894;51.038;13.692;2022-12-07T17:06:22;4.00;99.90
3758;DHT22;1894;51.038;13.692;2022-12-07T17:08:51;4.10;99.90
3758;DHT22;1894;51.038;13.692;2022-12-07T17:11:22;4.20;99.90
3758;DHT22;1894;51.038;13.692;2022-12-07T17:13:51;4.10;99.90
3758;DHT22;1894;51.038;13.692;2022-12-07T17:16:37;4.20;99.90
3758;DHT22;1894;51.038;13.692;2022-12-07T17:19:07;4.20;99.90
3758;DHT22;1894;51.038;13.692;2022-12-07T17:21:35;4.20;99.90
3758;DHT22;1894;51.038;13.692;2022-12-07T17:24:05;4.20;99.90
3758;DHT22;1894;51.038;13.692;2022-12-07T17:26:34;4.10;99.90
3758;DHT22;1894;51.038;13.692;2022-12-07T17:29:03;3.90;99.90
3758;DHT22;1894;51.038;13.692;2022-12-07T17:31:31;4.00;99.90
3758;DHT22;1894;51.038;13.692;2022-12-07T17:34:00;4.00;99.90
3758;DHT22;1894;51.038;13.692;2022-12-07T17:36:29;4.00;99.90
3758;DHT22;1894;51.038;13.692;2022-12-07T17:38:57;3.90;99.90
3758;DHT22;1894;51.038;13.692;2022-12-07T17:41:27;3.90;99.90
3758;DHT22;1894;51.038;13.692;2022-12-07T17:44:16;3.80;99.90
3758;DHT22;1894;51.038;13.692;2022-12-07T17:46:46;3.90;99.90
3758;DHT22;1894;51.038;13.692;2022-12-07T17:49:15;3.80;99.90
3758;DHT22;1894;51.038;13.692;2022-12-07T17:51:43;3.80;99.90
3758;DHT22;1894;51.038;13.692;2022-12-07T17:54:29;3.80;99.90
3758;DHT22;1894;51.038;13.692;2022-12-07T17:56:56;3.70;99.90
3758;DHT22;1894;51.038;13.692;2022-12-07T17:59:23;3.70;99.90
3758;DHT22;1894;51.038;13.692;2022-12-07T18:01:51;3.80;99.90
3758;DHT22;1894;51.038;13.692;2022-12-07T18:04:18;3.80;99.90
3758;DHT22;1894;51.038;13.692;2022-12-07T18:06:46;3.90;99.90
3758;DHT22;1894;51.038;13.692;2022-12-07T18:09:18;3.80;99.90
3758;DHT22;1894;51.038;13.692;2022-12-07T18:11:46;3.90;99.90
3758;DHT22;1894;51.038;13.692;2022-12-07T18:14:14;3.90;99.90
3758;DHT22;1894;51.038;13.692;2022-12-07T18:16:42;4.00;99.90
3758;DHT22;1894;51.038;13.692;2022-12-07T18:19:12;4.00;99.90
3758;DHT22;1894;51.038;13.692;2022-12-07T18:21:41;3.90;99.90
3758;DHT22;1894;51.038;13.692;2022-12-07T18:24:11;3.80;99.90
3758;DHT22;1894;51.038;13.692;2022-12-07T18:27:06;3.80;99.90
3758;DHT22;1894;51.038;13.692;2022-12-07T18:29:33;3.50;99.90
3758;DHT22;1894;51.038;13.692;2022-12-07T18:32:00;3.60;99.90
3758;DHT22;1894;51.038;13.692;2022-12-07T18:34:28;3.60;99.90
3758;DHT22;1894;51.038;13.692;2022-12-07T18:36:56;3.50;99.90
3758;DHT22;1894;51.038;13.692;2022-12-07T18:39:23;3.40;99.90
3758;DHT22;1894;51.038;13.692;2022-12-07T18:41:58;3.40;99.90
3758;DHT22;1894;51.038;13.692;2022-12-07T18:44:26;3.40;99.90
3758;DHT22;1894;51.038;13.692;2022-12-07T18:46:53;3.30;99.90
3758;DHT22;1894;51.038;13.692;2022-12-07T18:49:22;3.30;99.90
3758;DHT22;1894;51.038;13.692;2022-12-07T18:51:49;3.30;99.90
3758;DHT22;1894;51.038;13.692;2022-12-07T18:54:16;3.20;99.90
3758;DHT22;1894;51.038;13.692;2022-12-07T18:56:43;3.20;99.90
3758;DHT22;1894;51.038;13.692;2022-12-07T18:59:12;3.10;99.90
3758;DHT22;1894;51.038;13.692;2022-12-07T19:01:58;3.10;99.90
3758;DHT22;1894;51.038;13.692;2022-12-07T19:04:25;3.10;99.90
3758;DHT22;1894;51.038;13.692;2022-12-07T19:06:53;3.00;99.90
3758;DHT22;1894;51.038;13.692;2022-12-07T19:09:20;3.00;99.90